Time;durP1;ratioP1;P1;durP2;ratioP2;P2;SDS_P1;SDS_P2;PMS_P1;PMS_P2;Temp;Humidity;BMP_temperature;BMP_pressure;BME280_temperature;BME280_humidity;BME280_pressure;Samples;Min_cycle;Max_cycle;Signal;HPM_P1;HPM_P2
2022/06/26 00:00:15;;;;;;;2.53;1.55;;;17.60;99.90;;;;;;5069768;28;20267;-72
2022/06/26 00:02:42;;;;;;;1.83;1.73;;;17.50;99.90;;;;;;5070062;28;20260;-71
2022/06/26 00:05:10;;;;;;;1.52;1.42;;;17.50;99.90;;;;;;5072789;28;20263;-71
2022/06/26 00:07:37;;;;;;;2.67;1.48;;;17.70;99.90;;;;;;5073652;28;20209;-71
2022/06/26 00:10:07;;;;;;;1.73;1.63;;;17.60;99.90;;;;;;5073912;28;20233;-71
2022/06/26 00:12:34;;;;;;;2.28;1.60;;;17.50;99.90;;;;;;5060679;28;20272;-72
2022/06/26 00:15:01;;;;;;;1.45;1.35;;;17.50;99.90;;;;;;5073888;28;20268;-72
2022/06/26 00:17:28;;;;;;;1.13;1.02;;;17.50;99.90;;;;;;5073043;28;20270;-72
2022/06/26 00:19:55;;;;;;;1.75;1.65;;;17.40;99.90;;;;;;5073738;28;20214;-72
2022/06/26 00:22:22;;;;;;;1.77;1.67;;;17.40;99.90;;;;;;5072907;28;20251;-72
2022/06/26 00:24:49;;;;;;;1.17;1.10;;;17.30;99.90;;;;;;5073540;28;20255;-72
2022/06/26 00:27:19;;;;;;;1.40;1.30;;;17.30;99.90;;;;;;5073019;28;20202;-72
2022/06/26 00:29:46;;;;;;;2.00;1.70;;;17.40;99.90;;;;;;5073267;28;20230;-72
2022/06/26 00:32:13;;;;;;;1.70;1.58;;;17.40;99.90;;;;;;5072650;28;20251;-72
2022/06/26 00:34:40;;;;;;;1.88;1.70;;;17.30;99.90;;;;;;5081368;28;20266;-72
2022/06/26 00:37:07;;;;;;;1.45;1.35;;;17.30;99.90;;;;;;5093170;28;20239;-71
2022/06/26 00:39:34;;;;;;;2.28;1.70;;;17.30;99.90;;;;;;5090610;28;20218;-71
2022/06/26 00:42:01;;;;;;;1.95;1.65;;;17.20;99.90;;;;;;5080451;28;20263;-72
2022/06/26 00:44:30;;;;;;;1.30;1.20;;;17.30;99.90;;;;;;5080816;28;20214;-71
2022/06/26 00:46:57;;;;;;;1.65;1.50;;;17.20;99.90;;;;;;5093145;28;20288;-72
2022/06/26 00:49:24;;;;;;;2.25;2.13;;;17.30;99.90;;;;;;5093128;28;20274;-71
2022/06/26 00:51:54;;;;;;;2.13;1.88;;;17.40;99.90;;;;;;5079973;28;20567;-72
2022/06/26 00:54:22;;;;;;;1.30;1.20;;;17.50;99.90;;;;;;5091936;28;20251;-72
2022/06/26 00:56:49;;;;;;;2.03;1.92;;;17.30;99.90;;;;;;5092992;28;20209;-72
2022/06/26 00:59:16;;;;;;;1.92;1.67;;;17.20;99.90;;;;;;5092622;28;20202;-72
2022/06/26 01:01:44;;;;;;;1.67;1.55;;;17.10;99.90;;;;;;5090047;28;20287;-71
2022/06/26 01:04:11;;;;;;;1.50;1.40;;;17.00;99.90;;;;;;5072465;28;20680;-71
2022/06/26 01:06:38;;;;;;;4.82;2.28;;;17.00;99.90;;;;;;5072418;28;20628;-72
2022/06/26 01:09:05;;;;;;;1.45;1.20;;;16.90;99.90;;;;;;5072577;28;20252;-72
2022/06/26 01:11:32;;;;;;;2.33;2.22;;;16.90;99.90;;;;;;5072359;28;20230;-71
2022/06/26 01:14:00;;;;;;;3.70;1.60;;;16.90;99.90;;;;;;5072378;28;20221;-71
2022/06/26 01:16:27;;;;;;;1.55;1.42;;;16.90;99.90;;;;;;5071295;28;20301;-73
2022/06/26 01:18:56;;;;;;;1.15;1.05;;;16.90;99.90;;;;;;5072315;28;20665;-71
2022/06/26 01:21:25;;;;;;;1.33;1.23;;;16.90;99.90;;;;;;5071745;28;20253;-72
2022/06/26 01:23:54;;;;;;;1.00;0.90;;;16.80;99.90;;;;;;5072490;28;20206;-72
2022/06/26 01:26:23;;;;;;;1.40;1.05;;;16.80;99.90;;;;;;5071727;28;20228;-72
2022/06/26 01:28:50;;;;;;;1.58;1.48;;;16.80;99.90;;;;;;5072590;28;20202;-71
2022/06/26 01:31:18;;;;;;;1.38;1.27;;;16.80;99.90;;;;;;5071691;28;20277;-71
2022/06/26 01:33:46;;;;;;;1.70;1.30;;;16.80;99.90;;;;;;5072258;28;20206;-72
2022/06/26 01:36:13;;;;;;;3.15;1.25;;;16.90;99.90;;;;;;5071730;28;20214;-73
2022/06/26 01:38:40;;;;;;;3.42;1.40;;;16.90;99.90;;;;;;5072035;28;20740;-71
2022/06/26 01:41:09;;;;;;;1.20;1.10;;;16.80;99.90;;;;;;5071796;28;20214;-72
2022/06/26 01:43:38;;;;;;;2.95;1.30;;;16.70;99.90;;;;;;5074650;28;20742;-73
2022/06/26 01:46:06;;;;;;;2.55;1.58;;;16.70;99.90;;;;;;5092709;28;20254;-72
2022/06/26 01:48:34;;;;;;;2.22;1.45;;;16.80;99.90;;;;;;5092091;28;20206;-72
2022/06/26 01:51:03;;;;;;;1.13;1.02;;;16.80;99.90;;;;;;5092380;28;20225;-72
2022/06/26 01:53:30;;;;;;;1.65;1.55;;;16.90;99.90;;;;;;5091564;28;20266;-71
2022/06/26 01:55:58;;;;;;;2.85;2.13;;;16.80;99.90;;;;;;5092145;28;20251;-72
2022/06/26 01:58:26;;;;;;;2.03;1.33;;;16.70;99.90;;;;;;5091928;28;20270;-74
2022/06/26 02:00:54;;;;;;;2.63;1.33;;;16.80;99.90;;;;;;5091803;28;20197;-72
2022/06/26 02:03:22;;;;;;;2.33;2.13;;;16.70;99.90;;;;;;5091315;28;20335;-73
2022/06/26 02:05:49;;;;;;;2.13;1.70;;;16.70;99.90;;;;;;5080046;28;20202;-73
2022/06/26 02:08:17;;;;;;;1.77;1.67;;;16.70;99.90;;;;;;5070758;28;20738;-69
2022/06/26 02:13:40;;;;;;;2.05;1.27;;;16.70;99.90;;;;;;5049993;28;20259;-69
2022/06/26 02:16:12;;;;;;;2.72;1.58;;;16.80;99.90;;;;;;5071331;28;20285;-69
2022/06/26 02:18:40;;;;;;;3.33;1.45;;;16.70;99.90;;;;;;5070795;28;20263;-74
2022/06/26 02:21:08;;;;;;;2.78;1.45;;;16.70;99.90;;;;;;5071334;28;20255;-69
2022/06/26 02:23:37;;;;;;;1.33;1.23;;;16.70;99.90;;;;;;5071246;28;20198;-69
2022/06/26 02:26:05;;;;;;;2.70;2.00;;;16.70;99.90;;;;;;5071249;28;20206;-69
2022/06/26 02:28:34;;;;;;;3.70;1.88;;;16.70;99.90;;;;;;5071047;28;20266;-69
2022/06/26 02:31:01;;;;;;;4.38;1.48;;;16.70;99.90;;;;;;5071167;28;20234;-69
2022/06/26 02:33:28;;;;;;;2.15;1.77;;;16.80;99.90;;;;;;5070439;28;20263;-68
2022/06/26 02:35:55;;;;;;;1.58;1.45;;;16.80;99.90;;;;;;5071032;28;20599;-69
2022/06/26 02:38:22;;;;;;;1.58;1.48;;;16.70;99.90;;;;;;5070651;28;20586;-69
2022/06/26 02:40:50;;;;;;;1.40;1.30;;;16.80;99.90;;;;;;5070396;28;20631;-71
2022/06/26 02:43:18;;;;;;;3.17;1.23;;;16.80;99.90;;;;;;5070530;28;20202;-70
2022/06/26 02:45:47;;;;;;;3.92;1.83;;;16.70;99.90;;;;;;5091400;28;20289;-72
2022/06/26 02:48:14;;;;;;;1.73;1.33;;;16.70;99.90;;;;;;5090578;28;20210;-69
2022/06/26 02:50:41;;;;;;;2.83;1.75;;;16.60;99.90;;;;;;5090835;28;20225;-69
2022/06/26 02:53:09;;;;;;;2.42;1.65;;;16.60;99.90;;;;;;5090731;28;20213;-68
2022/06/26 02:55:36;;;;;;;1.50;1.40;;;16.70;99.90;;;;;;5090932;28;20354;-67
2022/06/26 02:58:04;;;;;;;3.05;1.60;;;16.70;99.90;;;;;;5091043;28;20205;-68
2022/06/26 03:00:31;;;;;;;2.10;1.75;;;16.60;99.90;;;;;;5090758;28;20209;-68
2022/06/26 03:03:01;;;;;;;1.92;1.63;;;16.50;99.90;;;;;;5090763;28;20201;-70
2022/06/26 03:05:28;;;;;;;1.52;1.42;;;16.50;99.90;;;;;;5082386;28;20210;-71
2022/06/26 03:07:56;;;;;;;4.13;1.95;;;16.40;99.90;;;;;;5070424;28;20252;-69
2022/06/26 03:10:23;;;;;;;2.78;1.70;;;16.40;99.90;;;;;;5065256;28;20319;-69
2022/06/26 03:12:51;;;;;;;1.85;1.65;;;16.40;99.90;;;;;;5070844;28;20203;-69
2022/06/26 03:15:19;;;;;;;2.63;1.83;;;16.50;99.90;;;;;;5070202;28;20673;-70
2022/06/26 03:17:47;;;;;;;3.03;1.95;;;16.60;99.90;;;;;;5056535;28;20233;-70
2022/06/26 03:20:17;;;;;;;4.53;2.08;;;16.50;99.90;;;;;;5070202;28;20249;-67
2022/06/26 03:22:45;;;;;;;2.95;1.67;;;16.50;99.90;;;;;;5070281;28;20202;-68
2022/06/26 03:25:12;;;;;;;2.35;2.08;;;16.50;99.90;;;;;;5069890;28;20203;-67
2022/06/26 03:27:39;;;;;;;2.35;1.85;;;16.50;99.90;;;;;;5070348;28;20214;-68
2022/06/26 03:30:07;;;;;;;3.50;2.15;;;16.50;99.90;;;;;;5070318;28;20551;-69
2022/06/26 03:32:34;;;;;;;1.92;1.80;;;16.40;99.90;;;;;;5070406;28;20206;-72
2022/06/26 03:35:01;;;;;;;2.95;1.85;;;16.40;99.90;;;;;;5070547;28;20210;-71
2022/06/26 03:37:30;;;;;;;2.47;1.77;;;16.50;99.90;;;;;;5069998;28;20727;-72
2022/06/26 03:39:57;;;;;;;2.72;1.75;;;16.50;99.90;;;;;;5073557;28;20267;-72
2022/06/26 03:42:24;;;;;;;3.28;1.98;;;16.40;99.90;;;;;;5074006;28;20708;-72
2022/06/26 03:44:51;;;;;;;3.13;2.05;;;16.40;99.90;;;;;;5087752;28;20209;-74
2022/06/26 03:47:18;;;;;;;4.00;2.22;;;16.30;99.90;;;;;;5094016;28;20209;-73
2022/06/26 03:49:45;;;;;;;4.57;2.03;;;16.40;99.90;;;;;;5094398;28;20207;-75
2022/06/26 03:52:12;;;;;;;1.80;1.30;;;16.40;99.90;;;;;;5093540;28;20221;-73
2022/06/26 03:54:40;;;;;;;1.85;1.75;;;16.40;99.90;;;;;;5094459;28;20262;-74
2022/06/26 03:57:07;;;;;;;2.08;1.88;;;16.40;99.90;;;;;;5094201;28;20201;-73
2022/06/26 03:59:36;;;;;;;2.75;2.10;;;16.40;99.90;;;;;;5094565;28;20338;-73
2022/06/26 04:02:04;;;;;;;2.53;2.33;;;16.40;99.90;;;;;;5094449;28;20213;-73
2022/06/26 04:04:31;;;;;;;2.90;2.10;;;16.40;99.90;;;;;;5093939;28;20209;-73
2022/06/26 04:06:58;;;;;;;3.28;2.40;;;16.40;99.90;;;;;;5094083;28;20665;-73
2022/06/26 04:09:25;;;;;;;2.53;2.17;;;16.40;99.90;;;;;;5094005;28;20653;-74
2022/06/26 04:11:53;;;;;;;3.38;2.10;;;16.40;99.90;;;;;;5074147;28;20283;-73
2022/06/26 04:14:20;;;;;;;4.63;3.30;;;16.50;99.90;;;;;;5073003;28;20255;-74
2022/06/26 04:16:47;;;;;;;2.35;2.15;;;16.60;99.90;;;;;;5073331;28;20248;-74
2022/06/26 04:19:14;;;;;;;2.03;1.60;;;16.60;99.90;;;;;;5072989;28;20206;-75
2022/06/26 04:21:41;;;;;;;2.58;1.45;;;16.60;99.90;;;;;;5073873;28;20263;-72
2022/06/26 04:24:08;;;;;;;3.22;2.50;;;16.50;99.90;;;;;;5073116;28;20241;-73
2022/06/26 04:26:35;;;;;;;2.80;2.35;;;16.50;99.90;;;;;;5073957;28;20206;-72
2022/06/26 04:29:03;;;;;;;6.13;2.72;;;16.60;99.90;;;;;;5073245;28;20666;-72
2022/06/26 04:31:30;;;;;;;4.65;2.28;;;16.60;99.90;;;;;;5073220;28;20295;-75
2022/06/26 04:33:57;;;;;;;2.53;1.90;;;16.50;99.90;;;;;;5073276;28;20202;-75
2022/06/26 04:36:24;;;;;;;2.40;1.98;;;16.40;99.90;;;;;;5072937;28;20202;-73
2022/06/26 04:38:51;;;;;;;3.67;3.38;;;16.40;99.90;;;;;;5072174;28;20327;-75
2022/06/26 04:41:34;;;;;;;3.85;2.00;;;16.50;99.90;;;;;;5072402;28;20280;-73
2022/06/26 04:44:06;;;;;;;3.95;1.52;;;16.50;99.90;;;;;;5072927;28;20685;-73
2022/06/26 04:46:33;;;;;;;4.25;1.98;;;16.50;99.90;;;;;;5074066;28;20206;-75
2022/06/26 04:49:01;;;;;;;2.47;2.13;;;16.40;99.90;;;;;;5074588;28;20409;-73
2022/06/26 04:51:28;;;;;;;2.72;1.92;;;16.40;99.90;;;;;;5074212;28;20226;-73
2022/06/26 04:53:54;;;;;;;2.33;1.73;;;16.60;99.90;;;;;;5076350;28;20202;-73
2022/06/26 04:56:22;;;;;;;3.15;2.00;;;16.60;99.90;;;;;;5073925;28;20267;-72
2022/06/26 04:58:48;;;;;;;2.33;2.08;;;16.60;99.90;;;;;;5077729;28;20263;-73
2022/06/26 05:01:17;;;;;;;2.30;2.00;;;16.60;99.90;;;;;;5075513;28;20626;-71
2022/06/26 05:03:44;;;;;;;2.97;2.05;;;16.70;99.90;;;;;;5072404;28;20211;-72
2022/06/26 05:06:11;;;;;;;5.18;2.03;;;16.80;99.90;;;;;;5072480;28;20259;-72
2022/06/26 05:08:38;;;;;;;2.13;1.88;;;16.70;99.90;;;;;;5072522;28;20206;-73
2022/06/26 05:11:05;;;;;;;3.40;2.05;;;16.80;99.90;;;;;;5072749;28;20234;-71
2022/06/26 05:13:32;;;;;;;2.65;1.85;;;16.70;99.90;;;;;;5072198;28;20206;-71
2022/06/26 05:16:00;;;;;;;5.07;2.42;;;16.70;99.90;;;;;;5072247;28;20214;-71
2022/06/26 05:18:28;;;;;;;2.72;2.15;;;16.60;99.90;;;;;;5072453;28;20214;-71
2022/06/26 05:20:55;;;;;;;2.63;1.83;;;16.60;99.90;;;;;;5072558;28;20206;-73
2022/06/26 05:23:24;;;;;;;6.15;2.22;;;16.50;99.90;;;;;;5072186;28;20255;-73
2022/06/26 05:25:51;;;;;;;4.63;2.15;;;16.80;99.90;;;;;;5072218;28;20263;-73
2022/06/26 05:28:19;;;;;;;2.28;2.08;;;16.80;99.90;;;;;;5070867;28;20260;-73
2022/06/26 05:30:46;;;;;;;3.65;1.88;;;16.70;99.90;;;;;;5072387;28;20284;-73
2022/06/26 05:33:13;;;;;;;3.20;2.17;;;16.70;99.90;;;;;;5071500;28;20197;-73
2022/06/26 05:35:41;;;;;;;2.10;1.70;;;16.70;99.90;;;;;;5072095;28;20327;-73
2022/06/26 05:38:09;;;;;;;2.85;1.98;;;16.80;99.90;;;;;;5071647;28;20213;-73
2022/06/26 05:40:36;;;;;;;3.40;1.55;;;16.90;99.90;;;;;;5071822;28;20210;-74
2022/06/26 05:43:03;;;;;;;2.78;1.75;;;16.80;99.90;;;;;;5071320;28;20222;-73
2022/06/26 05:45:30;;;;;;;2.80;1.58;;;16.70;99.90;;;;;;5074615;28;20214;-73
2022/06/26 05:47:57;;;;;;;4.38;2.63;;;16.70;99.90;;;;;;5071650;28;20263;-72
2022/06/26 05:50:24;;;;;;;2.47;1.90;;;16.60;99.90;;;;;;5068579;28;20206;-71
2022/06/26 05:52:52;;;;;;;2.75;1.65;;;16.80;99.90;;;;;;5071116;28;20226;-73
2022/06/26 05:55:20;;;;;;;4.45;1.80;;;16.90;99.90;;;;;;5071472;28;20284;-72
2022/06/26 05:57:47;;;;;;;3.70;2.00;;;16.90;99.90;;;;;;5072876;28;20289;-73
2022/06/26 06:00:15;;;;;;;4.43;2.08;;;16.90;99.90;;;;;;5072708;28;20198;-75
2022/06/26 06:02:42;;;;;;;3.53;2.00;;;16.80;99.90;;;;;;5072523;28;20292;-72
2022/06/26 06:05:09;;;;;;;1.92;1.35;;;16.60;99.90;;;;;;5070888;28;20210;-74
2022/06/26 06:07:37;;;;;;;4.57;2.25;;;16.50;99.90;;;;;;5070728;28;20739;-72
2022/06/26 06:10:07;;;;;;;3.00;2.22;;;16.50;99.90;;;;;;5071645;28;20256;-73
2022/06/26 06:12:35;;;;;;;5.68;3.88;;;16.60;99.90;;;;;;5071296;28;20790;-73
2022/06/26 06:15:02;;;;;;;3.95;1.70;;;16.80;99.90;;;;;;5071622;28;20202;-74
2022/06/26 06:17:40;;;;;;;2.78;1.85;;;16.90;99.90;;;;;;5070738;28;20209;-73
2022/06/26 06:20:11;;;;;;;2.53;1.67;;;17.00;99.90;;;;;;5071040;28;20574;-71
2022/06/26 06:22:38;;;;;;;4.90;1.90;;;17.00;99.90;;;;;;5070821;28;20688;-75
2022/06/26 06:25:08;;;;;;;1.67;1.42;;;17.00;99.90;;;;;;5063435;28;20231;-71
2022/06/26 06:27:36;;;;;;;2.70;1.70;;;17.10;99.90;;;;;;5064364;28;20214;-71
2022/06/26 06:30:04;;;;;;;1.77;1.67;;;17.00;99.90;;;;;;5068287;28;20253;-75
2022/06/26 06:32:31;;;;;;;3.42;1.90;;;16.90;99.90;;;;;;5070538;28;20287;-74
2022/06/26 06:34:58;;;;;;;3.25;2.03;;;16.90;99.90;;;;;;5071235;28;20256;-74
2022/06/26 06:37:25;;;;;;;5.20;2.90;;;16.90;99.90;;;;;;5070122;28;20259;-74
2022/06/26 06:39:52;;;;;;;1.98;1.75;;;17.00;99.90;;;;;;5070829;28;20260;-74
2022/06/26 06:42:21;;;;;;;2.42;1.88;;;17.10;99.90;;;;;;5070086;28;20210;-72
2022/06/26 06:44:48;;;;;;;2.80;2.17;;;16.90;99.90;;;;;;5083890;28;20201;-73
2022/06/26 06:47:15;;;;;;;2.95;2.00;;;16.80;99.90;;;;;;5090479;28;20236;-75
2022/06/26 06:49:42;;;;;;;3.85;1.88;;;16.70;99.90;;;;;;5090471;28;20661;-73
2022/06/26 06:52:09;;;;;;;3.30;1.98;;;16.70;99.90;;;;;;5070372;28;20222;-74
2022/06/26 06:54:36;;;;;;;2.53;1.70;;;16.60;99.90;;;;;;5070738;28;20328;-73
2022/06/26 06:57:04;;;;;;;2.00;1.80;;;16.60;99.90;;;;;;5070796;28;20252;-74
2022/06/26 06:59:33;;;;;;;4.47;2.08;;;16.50;99.90;;;;;;5070453;28;20256;-73
2022/06/26 07:02:00;;;;;;;2.08;1.98;;;16.60;99.90;;;;;;5070525;28;20210;-73
2022/06/26 07:04:27;;;;;;;1.98;1.70;;;16.70;99.90;;;;;;5070006;28;20673;-71
2022/06/26 07:06:54;;;;;;;2.83;2.15;;;16.80;99.90;;;;;;5065538;28;20240;-72
2022/06/26 07:09:21;;;;;;;2.95;1.85;;;16.70;99.90;;;;;;5064087;28;20237;-74
2022/06/26 07:11:49;;;;;;;2.17;1.70;;;16.70;99.90;;;;;;5070040;28;20303;-75
2022/06/26 07:14:16;;;;;;;1.98;1.80;;;16.80;99.90;;;;;;5058941;28;20673;-70
2022/06/26 07:16:44;;;;;;;3.03;1.98;;;16.90;99.90;;;;;;5070381;28;20641;-71
2022/06/26 07:19:11;;;;;;;3.90;2.25;;;16.90;99.90;;;;;;5069793;28;20206;-72
2022/06/26 07:21:38;;;;;;;5.55;2.00;;;17.00;99.90;;;;;;5070260;28;20213;-77
2022/06/26 07:24:06;;;;;;;2.28;1.73;;;17.10;99.90;;;;;;5070059;28;20634;-71
2022/06/26 07:26:33;;;;;;;4.90;2.08;;;17.20;99.90;;;;;;5070510;28;20593;-70
2022/06/26 07:29:00;;;;;;;2.67;1.60;;;17.20;99.90;;;;;;5069948;28;20261;-71
2022/06/26 07:31:27;;;;;;;2.60;2.20;;;17.10;99.90;;;;;;5069994;28;20224;-70
2022/06/26 07:34:13;;;;;;;2.63;1.90;;;16.90;99.90;;;;;;5070084;28;20206;-72
2022/06/26 07:36:40;;;;;;;3.63;2.47;;;17.10;99.90;;;;;;5070090;28;20248;-71
2022/06/26 07:39:08;;;;;;;3.45;2.00;;;17.40;99.90;;;;;;5069834;28;20206;-72
2022/06/26 07:41:35;;;;;;;2.60;1.90;;;17.60;99.90;;;;;;5069794;28;20585;-73
2022/06/26 07:44:02;;;;;;;4.20;2.35;;;17.60;99.90;;;;;;5077186;28;20213;-73
2022/06/26 07:46:29;;;;;;;3.22;2.10;;;17.40;99.90;;;;;;5090210;28;20272;-72
2022/06/26 07:48:58;;;;;;;2.67;1.80;;;17.50;99.90;;;;;;5090274;28;20205;-71
2022/06/26 07:51:25;;;;;;;2.65;1.65;;;17.50;99.90;;;;;;5089660;28;20209;-72
2022/06/26 07:53:52;;;;;;;2.90;2.08;;;17.60;99.90;;;;;;5080251;28;20360;-71
2022/06/26 07:56:19;;;;;;;3.33;2.33;;;17.60;99.90;;;;;;5069412;28;20754;-73
2022/06/26 07:58:46;;;;;;;2.38;2.17;;;17.60;99.90;;;;;;5063927;28;20253;-72
2022/06/26 08:01:13;;;;;;;3.75;2.10;;;17.90;99.90;;;;;;5061944;28;20255;-71
2022/06/26 08:03:40;;;;;;;2.53;2.30;;;18.10;99.90;;;;;;5069776;28;20202;-72
2022/06/26 08:06:08;;;;;;;2.90;2.17;;;17.70;99.90;;;;;;5070555;28;20252;-71
2022/06/26 08:08:36;;;;;;;3.05;2.75;;;17.50;99.90;;;;;;5071794;28;20615;-71
2022/06/26 08:11:03;;;;;;;4.43;3.30;;;17.40;99.90;;;;;;5069729;28;20576;-72
2022/06/26 08:13:31;;;;;;;5.45;2.28;;;17.40;99.90;;;;;;5069586;28;20230;-72
2022/06/26 08:15:58;;;;;;;4.72;2.03;;;17.40;99.90;;;;;;5069899;28;20260;-73
2022/06/26 08:18:25;;;;;;;2.50;2.30;;;17.30;99.90;;;;;;5063951;28;20206;-72
2022/06/26 08:20:52;;;;;;;3.60;2.20;;;17.20;99.90;;;;;;5069574;28;20252;-72
2022/06/26 08:23:20;;;;;;;5.53;3.03;;;17.30;99.90;;;;;;5069113;28;20674;-72
2022/06/26 08:25:47;;;;;;;3.03;2.17;;;17.20;99.90;;;;;;5072261;28;20202;-72
2022/06/26 08:28:14;;;;;;;6.05;2.38;;;17.10;99.90;;;;;;5072779;28;20214;-71
2022/06/26 08:30:41;;;;;;;5.82;2.28;;;17.20;99.90;;;;;;5073184;28;20207;-69
2022/06/26 08:33:08;;;;;;;2.47;2.13;;;17.20;99.90;;;;;;5061913;28;20229;-71
2022/06/26 08:35:35;;;;;;;2.45;2.25;;;17.40;99.90;;;;;;5072871;28;20206;-71
2022/06/26 08:38:02;;;;;;;2.05;1.88;;;17.30;99.90;;;;;;5071589;28;20260;-73
2022/06/26 08:40:31;;;;;;;3.47;2.55;;;17.20;99.90;;;;;;5072609;28;20271;-72
2022/06/26 08:43:01;;;;;;;3.83;1.70;;;17.30;99.90;;;;;;5061777;28;20218;-75
2022/06/26 08:45:29;;;;;;;1.70;1.60;;;17.40;99.90;;;;;;5089735;28;20542;-70
2022/06/26 08:47:59;;;;;;;2.60;2.35;;;17.60;99.90;;;;;;5093205;28;20632;-72
2022/06/26 08:50:27;;;;;;;2.08;1.92;;;17.90;99.90;;;;;;5092631;28;20237;-70
2022/06/26 08:52:54;;;;;;;2.45;1.70;;;17.80;99.90;;;;;;5093141;28;20291;-71
2022/06/26 08:55:23;;;;;;;3.55;1.58;;;17.80;99.90;;;;;;5092970;28;20202;-75
2022/06/26 08:57:52;;;;;;;1.83;1.70;;;17.90;99.90;;;;;;5093107;28;20624;-76
2022/06/26 09:00:19;;;;;;;2.17;1.67;;;18.00;99.90;;;;;;5092455;28;20209;-76
2022/06/26 09:02:47;;;;;;;1.95;1.85;;;18.00;99.90;;;;;;5093101;28;20213;-70
2022/06/26 09:05:14;;;;;;;1.58;1.48;;;18.00;99.90;;;;;;5092547;28;20205;-70
2022/06/26 09:07:48;;;;;;;1.50;1.23;;;18.10;99.90;;;;;;5092977;28;20255;-75
2022/06/26 09:10:17;;;;;;;1.77;1.40;;;18.30;99.90;;;;;;5092740;28;20741;-71
2022/06/26 09:12:50;;;;;;;2.20;1.65;;;18.10;99.90;;;;;;5092719;28;20331;-72
2022/06/26 09:15:20;;;;;;;1.95;1.20;;;18.10;99.90;;;;;;5092319;28;20672;-71
2022/06/26 09:17:57;;;;;;;3.72;1.95;;;18.10;99.90;;;;;;5092512;28;20266;-71
2022/06/26 09:20:24;;;;;;;2.47;1.63;;;18.10;99.90;;;;;;5092279;28;20742;-71
2022/06/26 09:22:55;;;;;;;2.05;1.80;;;17.90;99.90;;;;;;5092614;28;20198;-76
2022/06/26 09:25:34;;;;;;;2.80;1.80;;;17.80;99.90;;;;;;5092236;28;20205;-74
2022/06/26 09:28:06;;;;;;;2.25;1.65;;;17.80;99.90;;;;;;5092610;28;20197;-76
2022/06/26 09:30:45;;;;;;;2.50;2.30;;;17.70;99.90;;;;;;5092851;28;20291;-70
2022/06/26 09:33:12;;;;;;;3.88;2.05;;;17.70;99.90;;;;;;5091770;28;20225;-72
2022/06/26 09:35:39;;;;;;;1.92;1.73;;;17.70;99.90;;;;;;5091850;28;20213;-75
2022/06/26 09:38:06;;;;;;;2.50;2.20;;;17.60;99.90;;;;;;5091834;28;20213;-71
2022/06/26 09:40:34;;;;;;;1.83;1.73;;;17.60;99.90;;;;;;5092688;28;20741;-70
2022/06/26 09:43:00;;;;;;;2.55;1.77;;;17.60;99.90;;;;;;5079962;28;20237;-75
2022/06/26 09:45:40;;;;;;;1.83;1.38;;;17.80;99.90;;;;;;5089959;28;20720;-70
2022/06/26 09:48:10;;;;;;;1.95;1.70;;;18.00;99.90;;;;;;5092037;28;20292;-71
2022/06/26 09:50:37;;;;;;;2.17;1.90;;;18.40;99.90;;;;;;5091822;28;20270;-70
2022/06/26 09:53:06;;;;;;;1.80;1.70;;;18.80;99.90;;;;;;5092302;28;20276;-73
2022/06/26 09:55:33;;;;;;;2.05;1.92;;;19.00;99.90;;;;;;5091743;28;20208;-71
2022/06/26 09:58:00;;;;;;;2.75;2.50;;;18.90;99.90;;;;;;5091942;28;20206;-71
2022/06/26 10:00:29;;;;;;;3.75;1.45;;;18.50;99.90;;;;;;5091442;28;20201;-70
2022/06/26 10:08:27;;;;;;;2.50;1.63;;;18.10;99.90;;;;;;5091446;28;20401;-70
2022/06/26 10:10:56;;;;;;;2.20;1.88;;;18.10;99.90;;;;;;5091696;28;20210;-71
2022/06/26 10:13:24;;;;;;;3.42;1.70;;;18.10;99.90;;;;;;5091173;28;20233;-71
2022/06/26 10:16:11;;;;;;;2.00;1.80;;;18.30;99.90;;;;;;5091445;28;20205;-70
2022/06/26 10:18:53;;;;;;;3.55;2.13;;;18.30;99.90;;;;;;5091700;28;20278;-72
2022/06/26 10:21:20;;;;;;;2.05;1.92;;;18.30;99.90;;;;;;5090876;28;20258;-71
2022/06/26 10:23:47;;;;;;;2.03;1.80;;;18.50;99.90;;;;;;5091459;28;20209;-70
2022/06/26 10:26:16;;;;;;;1.73;1.63;;;19.00;99.90;;;;;;5090762;28;20622;-71
2022/06/26 10:29:02;;;;;;;3.03;1.88;;;19.40;99.90;;;;;;5091602;28;20206;-71
2022/06/26 10:31:31;;;;;;;2.40;2.25;;;19.50;99.90;;;;;;5090618;28;20205;-71
2022/06/26 10:34:11;;;;;;;1.80;1.70;;;19.60;99.90;;;;;;5091307;28;20229;-70
2022/06/26 10:36:38;;;;;;;1.85;1.60;;;20.00;99.90;;;;;;5091001;28;20291;-71
2022/06/26 10:39:07;;;;;;;1.90;1.80;;;20.10;99.90;;;;;;5091660;28;20218;-72
2022/06/26 10:44:35;;;;;;;1.83;1.73;;;20.10;99.90;;;;;;5080691;28;20216;-72
2022/06/26 10:47:01;;;;;;;1.92;1.83;;;20.30;99.90;;;;;;5090937;28;20204;-73
2022/06/26 10:49:30;;;;;;;2.92;1.40;;;20.30;99.90;;;;;;5091029;28;20209;-71
2022/06/26 10:51:59;;;;;;;2.40;2.20;;;20.10;99.90;;;;;;5090994;28;20259;-71
2022/06/26 10:54:28;;;;;;;3.78;2.38;;;19.90;99.90;;;;;;5090542;28;20642;-71
2022/06/26 10:57:08;;;;;;;1.52;1.42;;;19.80;99.90;;;;;;5089990;28;20673;-73
2022/06/26 10:59:40;;;;;;;2.05;1.92;;;20.10;99.90;;;;;;5083080;28;20208;-74
2022/06/26 11:02:08;;;;;;;1.10;1.10;;;20.40;99.90;;;;;;5082033;28;20662;-72
2022/06/26 11:04:45;;;;;;;3.38;1.73;;;20.50;99.90;;;;;;5090938;28;20270;-72
2022/06/26 11:07:15;;;;;;;2.05;1.70;;;20.40;99.90;;;;;;5085369;28;20219;-72
2022/06/26 11:09:42;;;;;;;2.15;1.70;;;20.10;99.90;;;;;;5079844;28;20212;-70
2022/06/26 11:12:09;;;;;;;2.00;1.85;;;19.70;99.90;;;;;;5084827;28;20659;-70
2022/06/26 11:14:36;;;;;;;1.67;1.27;;;20.00;99.90;;;;;;5062824;28;20233;-75
2022/06/26 11:17:05;;;;;;;1.70;1.60;;;20.20;99.90;;;;;;5082114;28;20259;-72
2022/06/26 11:20:46;;;;;;;1.65;1.55;;;20.20;99.90;;;;;;5063031;28;20211;-75
2022/06/26 11:22:27;;;;;;;2.08;1.88;;;20.20;99.90;;;;;;5068079;28;20209;-76
2022/06/26 11:24:56;;;;;;;1.77;1.67;;;20.20;99.90;;;;;;5073485;28;20251;-79
2022/06/26 11:27:24;;;;;;;1.80;1.27;;;20.40;99.90;;;;;;5072283;28;20206;-70
2022/06/26 11:29:52;;;;;;;1.83;1.23;;;20.60;99.90;;;;;;5072424;28;20288;-71
2022/06/26 11:32:21;;;;;;;1.75;1.65;;;20.80;99.90;;;;;;5069456;28;20210;-71
2022/06/26 11:34:49;;;;;;;1.48;1.30;;;20.60;99.90;;;;;;5074325;28;20264;-71
2022/06/26 11:37:16;;;;;;;1.25;1.15;;;20.50;99.90;;;;;;5069471;28;20260;-71
2022/06/26 11:39:44;;;;;;;1.27;1.17;;;20.60;99.90;;;;;;5071119;28;20244;-71
2022/06/26 11:42:21;;;;;;;1.75;1.27;;;20.60;99.90;;;;;;5069561;28;20214;-72
2022/06/26 11:44:49;;;;;;;1.25;1.15;;;20.20;99.90;;;;;;5082091;28;20209;-72
2022/06/26 11:47:16;;;;;;;1.10;1.00;;;20.80;99.90;;;;;;5088609;28;20263;-73
2022/06/26 11:49:43;;;;;;;2.03;1.83;;;21.00;99.90;;;;;;5081219;28;20202;-80
2022/06/26 11:52:12;;;;;;;1.45;1.35;;;21.10;99.90;;;;;;5087777;28;20321;-74
2022/06/26 11:54:39;;;;;;;1.67;1.58;;;21.10;99.90;;;;;;5090849;28;20237;-74
2022/06/26 11:57:09;;;;;;;1.50;1.40;;;21.40;99.90;;;;;;5090285;28;20723;-73
2022/06/26 11:59:42;;;;;;;2.55;1.55;;;21.30;99.90;;;;;;5091054;28;20738;-72
2022/06/26 12:02:19;;;;;;;2.38;2.13;;;21.40;99.90;;;;;;5083816;28;20233;-70
2022/06/26 12:04:55;;;;;;;1.00;1.00;;;21.40;99.90;;;;;;5094788;28;20295;-72
2022/06/26 12:07:22;;;;;;;2.08;1.33;;;21.00;99.90;;;;;;5090917;28;20244;-78
2022/06/26 12:09:49;;;;;;;44.30;39.63;;;20.80;99.90;;;;;;5094252;28;20201;-78
2022/06/26 12:12:18;;;;;;;400.60;339.92;;;20.80;99.90;;;;;;5093411;28;20206;-76
2022/06/26 12:14:51;;;;;;;703.17;520.38;;;20.80;99.90;;;;;;5093646;28;20788;-75
2022/06/26 12:17:22;;;;;;;1999.90;999.90;;;20.80;99.90;;;;;;5084423;28;20241;-73
2022/06/26 12:19:49;;;;;;;867.63;518.72;;;20.80;99.90;;;;;;5090025;28;20673;-75
2022/06/26 12:22:27;;;;;;;1191.38;608.55;;;20.40;99.90;;;;;;5092431;28;20234;-73
2022/06/26 12:24:56;;;;;;;114.38;69.63;;;20.00;99.90;;;;;;5074414;28;20224;-75
2022/06/26 12:27:35;;;;;;;71.68;61.10;;;20.20;99.90;;;;;;5072711;28;20210;-72
2022/06/26 12:30:02;;;;;;;213.80;168.90;;;20.00;99.90;;;;;;5074690;28;20220;-75
2022/06/26 12:32:29;;;;;;;134.80;78.75;;;20.10;99.90;;;;;;5084907;28;20266;-73
2022/06/26 12:34:56;;;;;;;752.97;523.42;;;20.00;99.90;;;;;;5073162;28;20233;-74
2022/06/26 12:37:23;;;;;;;909.80;516.95;;;19.80;99.90;;;;;;5073775;28;20216;-75
2022/06/26 12:39:50;;;;;;;579.97;391.90;;;19.80;99.90;;;;;;5073948;28;20214;-78
2022/06/26 12:42:17;;;;;;;1999.90;979.53;;;19.90;99.90;;;;;;5072132;28;20289;-74
2022/06/26 12:44:45;;;;;;;504.70;326.55;;;19.50;99.90;;;;;;5086001;28;20632;-74
2022/06/26 12:47:12;;;;;;;63.45;45.92;;;19.60;99.90;;;;;;5092774;28;20275;-73
2022/06/26 12:49:39;;;;;;;199.63;178.43;;;19.60;99.90;;;;;;5077601;28;20206;-75
2022/06/26 12:52:07;;;;;;;20.65;18.33;;;19.70;99.90;;;;;;5077767;28;20267;-77
2022/06/26 12:54:34;;;;;;;13.80;11.63;;;19.70;99.90;;;;;;5072716;28;20674;-74
2022/06/26 12:57:01;;;;;;;4.45;4.05;;;19.70;99.90;;;;;;5072512;28;20248;-79
2022/06/26 12:59:28;;;;;;;5.70;2.92;;;19.70;99.90;;;;;;5072551;28;20218;-78
2022/06/26 13:01:56;;;;;;;2.53;2.33;;;19.60;99.90;;;;;;5072446;28;20574;-78